Pride Of Bruges — PGJW — position and weather

sailwx.info

Track history (hours):
 
Tides and Currents Weather Stations Pressure Air Temp Water Temp Dewpoint Dewpoint Depression Visibility Wind Speed Wind Dir Waves Ship Positions

Pride Of Bruges

Operator: P&O Ferries

Last reported at 2020-Oct-30 13:28 UTC. Time now 2020-Oct-30 17:17 UTC.
Position N 53°44' W 000°17'.

Length 180 m; draft 5.8 m.

Type: Ship. MMSI: 244387000.

Date/timePositionNaut miles runAvg speedWind from/ knotsBaromVisibWave heightAir tempDewpointWater temp
2020-Oct-30 13:28N 53°44' W 000°17'0 0.0
2020-Oct-30 12:55N 53°44' W 000°17'0 0.0
2020-Oct-30 11:55N 53°44' W 000°17'0 0.0
2020-Oct-30 10:30N 53°44' W 000°17'0 0.0
2020-Oct-30 09:30N 53°44' W 000°17'0 0.0
2020-Oct-30 08:29N 53°44' W 000°17'4 4.2
2020-Oct-30 07:30N 53°41' W 000°13'1111.3
2020-Oct-30 06:31N 53°35' E 000°03'612.9
2020-Oct-30 06:00N 53°33' E 000°13'815.5
2020-Oct-30 05:29N 53°29' E 000°25'2914.9
2020-Oct-30 03:30N 53°15' E 001°08'815.7
2020-Oct-30 03:00N 53°09' E 001°17'1717.0
2020-Oct-30 02:00N 52°56' E 001°36'6016.5
2020-Oct-29 22:22N 52°24' E 002°60'2815.3
2020-Oct-29 20:31N 52°07' E 003°37'22 8.7
2020-Oct-29 18:00N 51°57' E 004°08'0 0.0
2020-Oct-29 17:30N 51°57' E 004°08'0 0.0
2020-Oct-29 16:30N 51°57' E 004°08'0 0.0
2020-Oct-29 15:00N 51°57' E 004°08'0 0.0
2020-Oct-29 08:00N 51°57' E 004°08'5 5.2
2020-Oct-29 07:00N 51°60' E 004°01'4915.9
2020-Oct-29 03:54N 52°23' E 002°50'716.0
2020-Oct-29 03:29N 52°27' E 002°41'1515.7
2020-Oct-29 02:30N 52°36' E 002°21'2315.2
2020-Oct-29 01:00N 52°49' E 001°50'2114.3
2020-Oct-28 23:30N 53°04' E 001°24'1514.8
2020-Oct-28 22:30N 53°15' E 001°07'2915.0
2020-Oct-28 20:33N 53°31' E 000°27'815.6
2020-Oct-28 20:00N 53°33' E 000°13'21 8.4
2020-Oct-28 17:30N 53°44' W 000°17'0 0.0
2020-Oct-28 14:59N 53°44' W 000°17'0 0.0
2020-Oct-28 13:00N 53°44' W 000°17'0 0.0
2020-Oct-28 11:30N 53°44' W 000°17'0 0.0
2020-Oct-28 11:00N 53°44' W 000°17'0 0.0
2020-Oct-28 10:30N 53°44' W 000°17'0 0.0
2020-Oct-28 10:00N 53°44' W 000°17'0 0.0
2020-Oct-28 08:30N 53°44' W 000°17'7 7.1
2020-Oct-28 07:30N 53°38' W 000°11'1312.8
2020-Oct-28 06:31N 53°33' E 000°09'3714.9
2020-Oct-28 04:00N 53°17' E 001°05'8216.0
2020-Oct-27 22:54N 52°27' E 002°52'2814.6
2020-Oct-27 21:00N 52°10' E 003°28'1514.9
2020-Oct-27 20:01N 52°04' E 003°50'13 4.4
2020-Oct-27 16:59N 51°57' E 004°08'0 0.0
2020-Oct-27 14:58N 51°57' E 004°08'0 0.0
2020-Oct-27 12:30N 51°57' E 004°08'0 0.0
2020-Oct-27 11:00N 51°57' E 004°08'0 0.0
2020-Oct-27 10:29N 51°57' E 004°08'0 0.0
2020-Oct-27 09:29N 51°57' E 004°08'0 0.0
2020-Oct-27 08:00N 51°57' E 004°08'1 1.4
2020-Oct-27 07:30N 51°57' E 004°08'1912.6
2020-Oct-27 06:00N 52°04' E 003°39'4116.2
2020-Oct-27 03:28N 52°27' E 002°43'817.0
2020-Oct-27 03:01N 52°32' E 002°33'5415.6
2020-Oct-26 23:31N 53°05' E 001°22'7114.1
2020-Oct-26 18:30N 53°44' W 000°17'0 0.0
2020-Oct-26 11:26N 53°44' W 000°17'0 0.0
2020-Oct-26 10:28N 53°44' W 000°17'9 2.6
2020-Oct-26 07:00N 53°37' W 000°07'612.6
2020-Oct-26 06:30N 53°35' E 000°03'612.8
2020-Oct-26 06:00N 53°33' E 000°13'713.4
2020-Oct-26 05:30N 53°33' E 000°25'4715.6
2020-Oct-26 02:30N 53°06' E 001°29'3316.3
2020-Oct-26 00:30N 52°46' E 002°12'2516.7
2020-Oct-25 23:00N 52°31' E 002°44'6115.4
2020-Oct-25 19:01N 51°57' E 004°08'0 0.3
2020-Oct-25 18:29N 51°57' E 004°08'0 0.0
2020-Oct-25 17:29N 51°57' E 004°08'0 0.0
2020-Oct-25 16:29N 51°57' E 004°08'0 0.0
2020-Oct-25 15:58N 51°57' E 004°08'0 0.0
2020-Oct-25 15:28N 51°57' E 004°08'0 0.0
2020-Oct-25 14:31N 51°57' E 004°08'0 0.0
2020-Oct-25 10:29N 51°57' E 004°08'0 0.0
2020-Oct-25 08:28N 51°57' E 004°08'25 8.6
2020-Oct-25 05:30N 52°07' E 003°30'1414.1
2020-Oct-25 04:30N 52°15' E 003°11'2114.1
2020-Oct-25 03:00N 52°27' E 002°43'1413.9
2020-Oct-25 02:00N 52°36' E 002°25'2914.7
2020-Oct-25 00:00N 52°52' E 001°45'2315.1
2020-Oct-24 22:31N 53°01' E 001°10'714.4
2020-Oct-24 22:00N 53°05' E 001°00'5413.5
2020-Oct-24 18:00N 53°38' W 000°11'7 4.7
2020-Oct-24 16:31N 53°44' W 000°17'0 0.0
2020-Oct-24 14:00N 53°44' W 000°17'0 0.0
2020-Oct-24 11:59N 53°44' W 000°17'0 0.0
2020-Oct-24 10:59N 53°44' W 000°17'0 0.0
2020-Oct-24 09:58N 53°44' W 000°17'64 9.3
2020-Oct-24 03:00N 53°12' E 001°17'2415.8
2020-Oct-24 01:30N 52°58' E 001°49'3014.9
2020-Oct-23 23:30N 52°39' E 002°26'2415.7
2020-Oct-23 21:59N 52°25' E 002°58'51 9.2
2020-Oct-23 16:25N 51°57' E 004°08'0 0.0
2020-Oct-23 10:29N 51°57' E 004°08'0 0.0
2020-Oct-23 08:28N 51°57' E 004°08'0 0.0
2020-Oct-23 07:28N 51°57' E 004°08'0 0.0
2020-Oct-23 07:00N 51°57' E 004°08'0 0.2
2020-Oct-23 06:30N 51°57' E 004°08'3313.2
2020-Oct-23 03:58N 52°11' E 003°19'5917.1
2020-Oct-23 00:30N 52°46' E 001°60'3718.6
2020-Oct-22 22:30N 53°11' E 001°14'6215.4
2020-Oct-22 18:30N 53°43' W 000°14'2 4.1
2020-Oct-22 18:00N 53°44' W 000°16'0 0.0
2020-Oct-22 14:59N 53°45' W 000°16'0 0.0
2020-Oct-22 14:29N 53°45' W 000°16'0 0.0
2020-Oct-22 13:59N 53°45' W 000°16'0 0.0
2020-Oct-22 11:00N 53°45' W 000°16'0 0.0
2020-Oct-22 10:30N 53°45' W 000°16'0 0.0
2020-Oct-22 07:59N 53°45' W 000°16'0 0.0
2020-Oct-22 07:29N 53°45' W 000°16'0 0.0
2020-Oct-22 06:29N 53°45' W 000°16'0 0.0
2020-Oct-22 04:58N 53°45' W 000°16'0 0.0
2020-Oct-22 03:30N 53°45' W 000°16'0 0.0
2020-Oct-21 23:59N 53°45' W 000°16'0 0.0
2020-Oct-21 23:28N 53°45' W 000°16'0 0.0
2020-Oct-21 20:00N 53°45' W 000°16'0 0.0
2020-Oct-21 19:00N 53°45' W 000°16'0 0.0
2020-Oct-21 17:29N 53°45' W 000°16'0 0.0
2020-Oct-21 14:28N 53°45' W 000°16'0 0.0
2020-Oct-21 12:58N 53°45' W 000°16'0 0.0
2020-Oct-21 09:29N 53°45' W 000°16'0 0.0
2020-Oct-21 08:59N 53°45' W 000°16'0 0.0
2020-Oct-21 08:29N 53°45' W 000°16'0 0.2
2020-Oct-21 07:30N 53°44' W 000°16'4 4.4
2020-Oct-21 06:30N 53°41' W 000°13'712.9
2020-Oct-21 06:00N 53°37' W 000°04'2013.1
2020-Oct-21 04:30N 53°29' E 000°26'1712.9
2020-Oct-21 03:14N 53°23' E 000°52'1115.0
2020-Oct-21 02:31N 53°16' E 001°06'3216.0
2020-Oct-21 00:31N 52°52' E 001°41'7615.1
2020-Oct-20 19:29N 51°45' E 002°38'32 9.2
2020-Oct-20 16:00N 51°21' E 003°11'  
Track history (hours):
 
Tides and Currents Weather Stations Pressure Air Temp Water Temp Dewpoint Dewpoint Depression Visibility Wind Speed Wind Dir Waves Ship Positions

Pride Of Bruges

Operator: P&O Ferries

Last reported at 2020-Oct-30 13:28 UTC. Time now 2020-Oct-30 17:17 UTC.
Position N 53°44' W 000°17'.

Length 180 m; draft 5.8 m.

Type: Ship. MMSI: 244387000.

Date/timePositionNaut miles runAvg speedWind from/ knotsBaromVisibWave heightAir tempDewpointWater temp
2020-Oct-30 13:28N 53°44' W 000°17'0 0.0
2020-Oct-30 12:55N 53°44' W 000°17'0 0.0
2020-Oct-30 11:55N 53°44' W 000°17'0 0.0
2020-Oct-30 10:30N 53°44' W 000°17'0 0.0
2020-Oct-30 09:30N 53°44' W 000°17'0 0.0
2020-Oct-30 08:29N 53°44' W 000°17'4 4.2
2020-Oct-30 07:30N 53°41' W 000°13'1111.3
2020-Oct-30 06:31N 53°35' E 000°03'612.9
2020-Oct-30 06:00N 53°33' E 000°13'815.5
2020-Oct-30 05:29N 53°29' E 000°25'2914.9
2020-Oct-30 03:30N 53°15' E 001°08'815.7
2020-Oct-30 03:00N 53°09' E 001°17'1717.0
2020-Oct-30 02:00N 52°56' E 001°36'6016.5
2020-Oct-29 22:22N 52°24' E 002°60'2815.3
2020-Oct-29 20:31N 52°07' E 003°37'22 8.7
2020-Oct-29 18:00N 51°57' E 004°08'0 0.0
2020-Oct-29 17:30N 51°57' E 004°08'0 0.0
2020-Oct-29 16:30N 51°57' E 004°08'0 0.0
2020-Oct-29 15:00N 51°57' E 004°08'0 0.0
2020-Oct-29 08:00N 51°57' E 004°08'5 5.2
2020-Oct-29 07:00N 51°60' E 004°01'4915.9
2020-Oct-29 03:54N 52°23' E 002°50'716.0
2020-Oct-29 03:29N 52°27' E 002°41'1515.7
2020-Oct-29 02:30N 52°36' E 002°21'2315.2
2020-Oct-29 01:00N 52°49' E 001°50'2114.3
2020-Oct-28 23:30N 53°04' E 001°24'1514.8
2020-Oct-28 22:30N 53°15' E 001°07'2915.0
2020-Oct-28 20:33N 53°31' E 000°27'815.6
2020-Oct-28 20:00N 53°33' E 000°13'21 8.4
2020-Oct-28 17:30N 53°44' W 000°17'0 0.0
2020-Oct-28 14:59N 53°44' W 000°17'0 0.0
2020-Oct-28 13:00N 53°44' W 000°17'0 0.0
2020-Oct-28 11:30N 53°44' W 000°17'0 0.0
2020-Oct-28 11:00N 53°44' W 000°17'0 0.0
2020-Oct-28 10:30N 53°44' W 000°17'0 0.0
2020-Oct-28 10:00N 53°44' W 000°17'0 0.0
2020-Oct-28 08:30N 53°44' W 000°17'7 7.1
2020-Oct-28 07:30N 53°38' W 000°11'1312.8
2020-Oct-28 06:31N 53°33' E 000°09'3714.9
2020-Oct-28 04:00N 53°17' E 001°05'8216.0
2020-Oct-27 22:54N 52°27' E 002°52'2814.6
2020-Oct-27 21:00N 52°10' E 003°28'1514.9
2020-Oct-27 20:01N 52°04' E 003°50'13 4.4
2020-Oct-27 16:59N 51°57' E 004°08'0 0.0
2020-Oct-27 14:58N 51°57' E 004°08'0 0.0
2020-Oct-27 12:30N 51°57' E 004°08'0 0.0
2020-Oct-27 11:00N 51°57' E 004°08'0 0.0
2020-Oct-27 10:29N 51°57' E 004°08'0 0.0
2020-Oct-27 09:29N 51°57' E 004°08'0 0.0
2020-Oct-27 08:00N 51°57' E 004°08'1 1.4
2020-Oct-27 07:30N 51°57' E 004°08'1912.6
2020-Oct-27 06:00N 52°04' E 003°39'4116.2
2020-Oct-27 03:28N 52°27' E 002°43'817.0
2020-Oct-27 03:01N 52°32' E 002°33'5415.6
2020-Oct-26 23:31N 53°05' E 001°22'7114.1
2020-Oct-26 18:30N 53°44' W 000°17'0 0.0
2020-Oct-26 11:26N 53°44' W 000°17'0 0.0
2020-Oct-26 10:28N 53°44' W 000°17'9 2.6
2020-Oct-26 07:00N 53°37' W 000°07'612.6
2020-Oct-26 06:30N 53°35' E 000°03'612.8
2020-Oct-26 06:00N 53°33' E 000°13'713.4
2020-Oct-26 05:30N 53°33' E 000°25'4715.6
2020-Oct-26 02:30N 53°06' E 001°29'3316.3
2020-Oct-26 00:30N 52°46' E 002°12'2516.7
2020-Oct-25 23:00N 52°31' E 002°44'6115.4
2020-Oct-25 19:01N 51°57' E 004°08'0 0.3
2020-Oct-25 18:29N 51°57' E 004°08'0 0.0
2020-Oct-25 17:29N 51°57' E 004°08'0 0.0
2020-Oct-25 16:29N 51°57' E 004°08'0 0.0
2020-Oct-25 15:58N 51°57' E 004°08'0 0.0
2020-Oct-25 15:28N 51°57' E 004°08'0 0.0
2020-Oct-25 14:31N 51°57' E 004°08'0 0.0
2020-Oct-25 10:29N 51°57' E 004°08'0 0.0
2020-Oct-25 08:28N 51°57' E 004°08'25 8.6
2020-Oct-25 05:30N 52°07' E 003°30'1414.1
2020-Oct-25 04:30N 52°15' E 003°11'2114.1
2020-Oct-25 03:00N 52°27' E 002°43'1413.9
2020-Oct-25 02:00N 52°36' E 002°25'2914.7
2020-Oct-25 00:00N 52°52' E 001°45'2315.1
2020-Oct-24 22:31N 53°01' E 001°10'714.4
2020-Oct-24 22:00N 53°05' E 001°00'5413.5
2020-Oct-24 18:00N 53°38' W 000°11'7 4.7
2020-Oct-24 16:31N 53°44' W 000°17'0 0.0
2020-Oct-24 14:00N 53°44' W 000°17'0 0.0
2020-Oct-24 11:59N 53°44' W 000°17'0 0.0
2020-Oct-24 10:59N 53°44' W 000°17'0 0.0
2020-Oct-24 09:58N 53°44' W 000°17'64 9.3
2020-Oct-24 03:00N 53°12' E 001°17'2415.8
2020-Oct-24 01:30N 52°58' E 001°49'3014.9
2020-Oct-23 23:30N 52°39' E 002°26'2415.7
2020-Oct-23 21:59N 52°25' E 002°58'51 9.2
2020-Oct-23 16:25N 51°57' E 004°08'0 0.0
2020-Oct-23 10:29N 51°57' E 004°08'0 0.0
2020-Oct-23 08:28N 51°57' E 004°08'0 0.0
2020-Oct-23 07:28N 51°57' E 004°08'0 0.0
2020-Oct-23 07:00N 51°57' E 004°08'0 0.2
2020-Oct-23 06:30N 51°57' E 004°08'3313.2
2020-Oct-23 03:58N 52°11' E 003°19'5917.1
2020-Oct-23 00:30N 52°46' E 001°60'3718.6
2020-Oct-22 22:30N 53°11' E 001°14'6215.4
2020-Oct-22 18:30N 53°43' W 000°14'2 4.1
2020-Oct-22 18:00N 53°44' W 000°16'0 0.0
2020-Oct-22 14:59N 53°45' W 000°16'0 0.0
2020-Oct-22 14:29N 53°45' W 000°16'0 0.0
2020-Oct-22 13:59N 53°45' W 000°16'0 0.0
2020-Oct-22 11:00N 53°45' W 000°16'0 0.0
2020-Oct-22 10:30N 53°45' W 000°16'0 0.0
2020-Oct-22 07:59N 53°45' W 000°16'0 0.0
2020-Oct-22 07:29N 53°45' W 000°16'0 0.0
2020-Oct-22 06:29N 53°45' W 000°16'0 0.0
2020-Oct-22 04:58N 53°45' W 000°16'0 0.0
2020-Oct-22 03:30N 53°45' W 000°16'0 0.0
2020-Oct-21 23:59N 53°45' W 000°16'0 0.0
2020-Oct-21 23:28N 53°45' W 000°16'0 0.0
2020-Oct-21 20:00N 53°45' W 000°16'0 0.0
2020-Oct-21 19:00N 53°45' W 000°16'0 0.0
2020-Oct-21 17:29N 53°45' W 000°16'0 0.0
2020-Oct-21 14:28N 53°45' W 000°16'0 0.0
2020-Oct-21 12:58N 53°45' W 000°16'0 0.0
2020-Oct-21 09:29N 53°45' W 000°16'0 0.0
2020-Oct-21 08:59N 53°45' W 000°16'0 0.0
2020-Oct-21 08:29N 53°45' W 000°16'0 0.2
2020-Oct-21 07:30N 53°44' W 000°16'4 4.4
2020-Oct-21 06:30N 53°41' W 000°13'712.9
2020-Oct-21 06:00N 53°37' W 000°04'2013.1
2020-Oct-21 04:30N 53°29' E 000°26'1712.9
2020-Oct-21 03:14N 53°23' E 000°52'1115.0
2020-Oct-21 02:31N 53°16' E 001°06'3216.0
2020-Oct-21 00:31N 52°52' E 001°41'7615.1
2020-Oct-20 19:29N 51°45' E 002°38'32 9.2
2020-Oct-20 16:00N 51°21' E 003°11'  

Dump ship's entire track history